METAR Data
IDs: Format: Raw Decoded Include TAF

Data at: 0106 UTC 06 Dec 2019

METAR for:KRMN (Stafford Rgnl, VA, US)
Text:KRMN 060055Z AUTO 00000KT 10SM CLR 01/M04 A3016 RMK AO2 T00061041
Temperature: 0.6°C ( 33°F)
Dewpoint: -4.1°C ( 25°F) [RH = 71%]
Pressure (altimeter):30.16 inches Hg (1021.4 mb)
Winds:calm
Visibility:10 or more sm (16+ km)
Ceiling:at least 12,000 feet AGL
Clouds:sky clear below 12,000 feet AGL
QC Flag:automated observation with no human augmentation